sensor_id;sensor_type;location;lat;lon;timestamp;pressure;altitude;pressure_sealevel;temperature;humidity
13661;BME280;6903;49.480;11.102;2023-01-25T00:00:09;99586.31;;;2.49;100.00
13661;BME280;6903;49.480;11.102;2023-01-25T00:02:34;99587.25;;;2.46;100.00
13661;BME280;6903;49.480;11.102;2023-01-25T00:04:59;99581.97;;;2.51;100.00
13661;BME280;6903;49.480;11.102;2023-01-25T00:07:25;99580.16;;;2.54;100.00
13661;BME280;6903;49.480;11.102;2023-01-25T00:09:50;99579.34;;;2.51;100.00
13661;BME280;6903;49.480;11.102;2023-01-25T00:12:15;99580.94;;;2.56;100.00
13661;BME280;6903;49.480;11.102;2023-01-25T00:14:40;99582.72;;;2.56;100.00
13661;BME280;6903;49.480;11.102;2023-01-25T00:17:06;99575.69;;;2.58;100.00
13661;BME280;6903;49.480;11.102;2023-01-25T00:19:31;99573.22;;;2.53;100.00
13661;BME280;6903;49.480;11.102;2023-01-25T00:21:56;99582.16;;;2.40;100.00
13661;BME280;6903;49.480;11.102;2023-01-25T00:24:22;99578.03;;;2.32;100.00
13661;BME280;6903;49.480;11.102;2023-01-25T00:26:48;99587.75;;;2.24;100.00
13661;BME280;6903;49.480;11.102;2023-01-25T00:29:13;99582.44;;;2.28;100.00
13661;BME280;6903;49.480;11.102;2023-01-25T00:36:49;99578.25;;;2.20;100.00
13661;BME280;6903;49.480;11.102;2023-01-25T00:39:15;99577.41;;;2.19;100.00
13661;BME280;6903;49.480;11.102;2023-01-25T00:41:42;99570.44;;;2.21;100.00
13661;BME280;6903;49.480;11.102;2023-01-25T00:44:07;99567.91;;;2.17;100.00
13661;BME280;6903;49.480;11.102;2023-01-25T00:46:33;99572.25;;;2.16;100.00
13661;BME280;6903;49.480;11.102;2023-01-25T00:48:58;99574.03;;;2.14;100.00
13661;BME280;6903;49.480;11.102;2023-01-25T00:51:24;99572.41;;;2.10;100.00
13661;BME280;6903;49.480;11.102;2023-01-25T00:53:49;99568.06;;;2.11;100.00
13661;BME280;6903;49.480;11.102;2023-01-25T00:56:15;99561.19;;;2.07;100.00
13661;BME280;6903;49.480;11.102;2023-01-25T00:58:40;99558.38;;;2.17;100.00
13661;BME280;6903;49.480;11.102;2023-01-25T01:01:06;99561.94;;;2.12;100.00
13661;BME280;6903;49.480;11.102;2023-01-25T01:03:31;99558.66;;;2.04;100.00
13661;BME280;6903;49.480;11.102;2023-01-25T01:06:04;99559.53;;;2.03;100.00
13661;BME280;6903;49.480;11.102;2023-01-25T01:08:32;99555.25;;;2.00;100.00
13661;BME280;6903;49.480;11.102;2023-01-25T01:10:59;99558.78;;;1.98;100.00
13661;BME280;6903;49.480;11.102;2023-01-25T01:13:25;99554.47;;;1.95;100.00
13661;BME280;6903;49.480;11.102;2023-01-25T01:15:50;99553.72;;;1.89;100.00
13661;BME280;6903;49.480;11.102;2023-01-25T01:18:15;99559.91;;;1.85;100.00
13661;BME280;6903;49.480;11.102;2023-01-25T01:20:47;99558.03;;;1.91;100.00
13661;BME280;6903;49.480;11.102;2023-01-25T01:23:13;99553.63;;;1.95;100.00
13661;BME280;6903;49.480;11.102;2023-01-25T01:25:38;99558.06;;;1.90;100.00
13661;BME280;6903;49.480;11.102;2023-01-25T01:28:03;99561.44;;;1.95;100.00
13661;BME280;6903;49.480;11.102;2023-01-25T01:30:29;99562.34;;;1.92;100.00
13661;BME280;6903;49.480;11.102;2023-01-25T01:32:54;99552.72;;;1.97;100.00
13661;BME280;6903;49.480;11.102;2023-01-25T01:35:19;99552.69;;;1.99;100.00
13661;BME280;6903;49.480;11.102;2023-01-25T01:37:44;99558.84;;;1.95;100.00
13661;BME280;6903;49.480;11.102;2023-01-25T01:40:13;99556.19;;;1.98;100.00
13661;BME280;6903;49.480;11.102;2023-01-25T01:42:59;99558.94;;;1.89;100.00
13661;BME280;6903;49.480;11.102;2023-01-25T01:46:01;99555.34;;;1.96;100.00
13661;BME280;6903;49.480;11.102;2023-01-25T01:48:37;99558.00;;;1.93;100.00
13661;BME280;6903;49.480;11.102;2023-01-25T01:51:14;99558.97;;;1.87;100.00
13661;BME280;6903;49.480;11.102;2023-01-25T01:53:45;99553.88;;;1.81;100.00
13661;BME280;6903;49.480;11.102;2023-01-25T01:56:15;99551.19;;;1.86;100.00
13661;BME280;6903;49.480;11.102;2023-01-25T01:58:43;99551.31;;;1.80;100.00
13661;BME280;6903;49.480;11.102;2023-01-25T02:01:09;99554.69;;;1.85;100.00
13661;BME280;6903;49.480;11.102;2023-01-25T02:03:35;99551.09;;;1.90;100.00
13661;BME280;6903;49.480;11.102;2023-01-25T02:06:10;99555.38;;;1.94;100.00
13661;BME280;6903;49.480;11.102;2023-01-25T02:08:37;99556.38;;;1.87;100.00
13661;BME280;6903;49.480;11.102;2023-01-25T02:11:05;99556.56;;;1.78;100.00
13661;BME280;6903;49.480;11.102;2023-01-25T02:13:31;99554.69;;;1.85;100.00
13661;BME280;6903;49.480;11.102;2023-01-25T02:15:58;99557.31;;;1.83;100.00
13661;BME280;6903;49.480;11.102;2023-01-25T02:18:24;99557.31;;;1.85;100.00
13661;BME280;6903;49.480;11.102;2023-01-25T02:20:51;99551.19;;;1.86;100.00
13661;BME280;6903;49.480;11.102;2023-01-25T02:23:29;99552.19;;;1.80;100.00
13661;BME280;6903;49.480;11.102;2023-01-25T02:25:59;99549.63;;;1.79;100.00
13661;BME280;6903;49.480;11.102;2023-01-25T02:28:41;99550.41;;;1.82;100.00
13661;BME280;6903;49.480;11.102;2023-01-25T02:31:07;99552.88;;;1.90;100.00
13661;BME280;6903;49.480;11.102;2023-01-25T02:33:33;99554.56;;;1.91;100.00
13661;BME280;6903;49.480;11.102;2023-01-25T02:36:14;99554.56;;;1.91;100.00
13661;BME280;6903;49.480;11.102;2023-01-25T02:38:44;99549.41;;;1.89;100.00
13661;BME280;6903;49.480;11.102;2023-01-25T02:41:15;99546.00;;;1.86;100.00
13661;BME280;6903;49.480;11.102;2023-01-25T02:43:42;99543.38;;;1.87;100.00
13661;BME280;6903;49.480;11.102;2023-01-25T02:48:43;99546.50;;;2.04;100.00
13661;BME280;6903;49.480;11.102;2023-01-25T02:51:09;99544.78;;;2.03;100.00
13661;BME280;6903;49.480;11.102;2023-01-25T02:53:34;99544.78;;;2.03;100.00
13661;BME280;6903;49.480;11.102;2023-01-25T02:55:59;99551.75;;;2.03;100.00
13661;BME280;6903;49.480;11.102;2023-01-25T02:58:25;99539.41;;;2.12;100.00
13661;BME280;6903;49.480;11.102;2023-01-25T03:00:50;99542.09;;;2.08;100.00
13661;BME280;6903;49.480;11.102;2023-01-25T03:03:15;99540.25;;;2.13;100.00
13661;BME280;6903;49.480;11.102;2023-01-25T03:05:41;99534.56;;;1.94;100.00
13661;BME280;6903;49.480;11.102;2023-01-25T03:08:06;99538.66;;;2.06;100.00
13661;BME280;6903;49.480;11.102;2023-01-25T03:10:31;99542.25;;;2.00;100.00
13661;BME280;6903;49.480;11.102;2023-01-25T03:12:57;99547.44;;;2.00;100.00
13661;BME280;6903;49.480;11.102;2023-01-25T03:15:22;99525.78;;;1.98;100.00
13661;BME280;6903;49.480;11.102;2023-01-25T03:17:47;99532.13;;;1.87;100.00
13661;BME280;6903;49.480;11.102;2023-01-25T03:20:13;99523.19;;;2.00;100.00
13661;BME280;6903;49.480;11.102;2023-01-25T03:22:38;99520.72;;;1.92;100.00
13661;BME280;6903;49.480;11.102;2023-01-25T03:25:03;99525.06;;;1.92;100.00
13661;BME280;6903;49.480;11.102;2023-01-25T03:27:29;99524.13;;;1.96;100.00
13661;BME280;6903;49.480;11.102;2023-01-25T03:29:54;99528.66;;;1.86;100.00
13661;BME280;6903;49.480;11.102;2023-01-25T03:32:20;99519.84;;;1.93;100.00
13661;BME280;6903;49.480;11.102;2023-01-25T03:34:45;99524.31;;;1.87;100.00
13661;BME280;6903;49.480;11.102;2023-01-25T03:37:10;99517.44;;;1.83;100.00
13661;BME280;6903;49.480;11.102;2023-01-25T03:39:36;99511.28;;;1.88;100.00
13661;BME280;6903;49.480;11.102;2023-01-25T03:42:01;99514.53;;;1.99;100.00
13661;BME280;6903;49.480;11.102;2023-01-25T03:44:26;99513.78;;;1.93;100.00
13661;BME280;6903;49.480;11.102;2023-01-25T03:46:52;99508.56;;;1.94;100.00
13661;BME280;6903;49.480;11.102;2023-01-25T03:49:17;99499.91;;;1.92;100.00
13661;BME280;6903;49.480;11.102;2023-01-25T03:51:42;99509.44;;;1.92;100.00
13661;BME280;6903;49.480;11.102;2023-01-25T03:54:08;99505.13;;;1.92;100.00
13661;BME280;6903;49.480;11.102;2023-01-25T03:56:35;99495.72;;;1.87;100.00
13661;BME280;6903;49.480;11.102;2023-01-25T03:59:00;99500.91;;;1.87;100.00
13661;BME280;6903;49.480;11.102;2023-01-25T04:01:25;99503.50;;;1.88;100.00
13661;BME280;6903;49.480;11.102;2023-01-25T04:03:51;99501.88;;;1.81;100.00
13661;BME280;6903;49.480;11.102;2023-01-25T04:06:16;99500.94;;;1.84;100.00
13661;BME280;6903;49.480;11.102;2023-01-25T04:08:41;99494.81;;;1.88;100.00
13661;BME280;6903;49.480;11.102;2023-01-25T04:11:08;99500.72;;;1.96;100.00
13661;BME280;6903;49.480;11.102;2023-01-25T04:13:35;99494.72;;;1.92;100.00
13661;BME280;6903;49.480;11.102;2023-01-25T04:16:04;99491.25;;;1.92;100.00
13661;BME280;6903;49.480;11.102;2023-01-25T04:18:30;99488.69;;;1.90;100.00
13661;BME280;6903;49.480;11.102;2023-01-25T04:20:56;99480.03;;;1.90;100.00
13661;BME280;6903;49.480;11.102;2023-01-25T04:23:23;99483.50;;;1.89;100.00
13661;BME280;6903;49.480;11.102;2023-01-25T04:25:56;99475.84;;;1.83;100.00
13661;BME280;6903;49.480;11.102;2023-01-25T04:28:23;99475.00;;;1.81;100.00
13661;BME280;6903;49.480;11.102;2023-01-25T04:30:48;99466.41;;;1.79;100.00
13661;BME280;6903;49.480;11.102;2023-01-25T04:33:14;99462.88;;;1.81;100.00
13661;BME280;6903;49.480;11.102;2023-01-25T04:35:39;99459.16;;;1.93;100.00
13661;BME280;6903;49.480;11.102;2023-01-25T04:38:04;99455.66;;;1.94;100.00
13661;BME280;6903;49.480;11.102;2023-01-25T04:40:30;99451.34;;;1.94;100.00
13661;BME280;6903;49.480;11.102;2023-01-25T04:42:56;99447.91;;;1.92;100.00
13661;BME280;6903;49.480;11.102;2023-01-25T04:45:23;99448.03;;;1.86;100.00
13661;BME280;6903;49.480;11.102;2023-01-25T04:47:54;99442.88;;;1.85;100.00
13661;BME280;6903;49.480;11.102;2023-01-25T04:50:20;99424.81;;;1.79;100.00
13661;BME280;6903;49.480;11.102;2023-01-25T04:52:45;99437.75;;;1.82;100.00
13661;BME280;6903;49.480;11.102;2023-01-25T04:55:10;99434.41;;;1.75;100.00
13661;BME280;6903;49.480;11.102;2023-01-25T04:57:36;99437.88;;;1.74;100.00
13661;BME280;6903;49.480;11.102;2023-01-25T05:00:01;99437.06;;;1.72;100.00
13661;BME280;6903;49.480;11.102;2023-01-25T05:02:27;99433.53;;;1.75;100.00
13661;BME280;6903;49.480;11.102;2023-01-25T05:04:52;99426.66;;;1.74;100.00
13661;BME280;6903;49.480;11.102;2023-01-25T05:07:17;99418.81;;;1.75;100.00
13661;BME280;6903;49.480;11.102;2023-01-25T05:09:43;99429.22;;;1.75;100.00
13661;BME280;6903;49.480;11.102;2023-01-25T05:12:08;99416.34;;;1.69;100.00
13661;BME280;6903;49.480;11.102;2023-01-25T05:14:37;99420.44;;;1.79;100.00
13661;BME280;6903;49.480;11.102;2023-01-25T05:17:04;99415.13;;;1.85;100.00
13661;BME280;6903;49.480;11.102;2023-01-25T05:19:30;99427.22;;;1.86;100.00
13661;BME280;6903;49.480;11.102;2023-01-25T05:21:55;99418.63;;;1.83;100.00
13661;BME280;6903;49.480;11.102;2023-01-25T05:24:28;99416.84;;;1.86;100.00
13661;BME280;6903;49.480;11.102;2023-01-25T05:26:54;99427.28;;;1.85;100.00
13661;BME280;6903;49.480;11.102;2023-01-25T05:29:37;99430.72;;;1.85;100.00
13661;BME280;6903;49.480;11.102;2023-01-25T05:32:06;99425.78;;;1.73;100.00
13661;BME280;6903;49.480;11.102;2023-01-25T05:34:32;99423.19;;;1.73;100.00
13661;BME280;6903;49.480;11.102;2023-01-25T05:36:58;99431.00;;;1.72;100.00
13661;BME280;6903;49.480;11.102;2023-01-25T05:39:24;99415.66;;;1.61;100.00
13661;BME280;6903;49.480;11.102;2023-01-25T05:41:49;99422.63;;;1.59;100.00
13661;BME280;6903;49.480;11.102;2023-01-25T05:44:15;99416.53;;;1.59;100.00
13661;BME280;6903;49.480;11.102;2023-01-25T05:46:40;99422.56;;;1.61;100.00
13661;BME280;6903;49.480;11.102;2023-01-25T05:49:06;99413.06;;;1.61;100.00
13661;BME280;6903;49.480;11.102;2023-01-25T05:51:31;99420.91;;;1.57;100.00
13661;BME280;6903;49.480;11.102;2023-01-25T05:53:57;99414.16;;;1.50;100.00
13661;BME280;6903;49.480;11.102;2023-01-25T05:56:22;99420.91;;;1.57;100.00
13661;BME280;6903;49.480;11.102;2023-01-25T05:58:55;99420.88;;;1.58;100.00
13661;BME280;6903;49.480;11.102;2023-01-25T06:01:20;99426.88;;;1.62;100.00
13661;BME280;6903;49.480;11.102;2023-01-25T06:03:46;99418.38;;;1.54;100.00
13661;BME280;6903;49.480;11.102;2023-01-25T06:06:12;99418.53;;;1.46;100.00
13661;BME280;6903;49.480;11.102;2023-01-25T06:08:37;99416.03;;;1.41;100.00
13661;BME280;6903;49.480;11.102;2023-01-25T06:11:11;99409.94;;;1.42;100.00
13661;BME280;6903;49.480;11.102;2023-01-25T06:13:37;99416.81;;;1.45;100.00
13661;BME280;6903;49.480;11.102;2023-01-25T06:16:03;99417.00;;;1.36;100.00
13661;BME280;6903;49.480;11.102;2023-01-25T06:18:30;99418.75;;;1.35;100.00
13661;BME280;6903;49.480;11.102;2023-01-25T06:20:56;99412.81;;;1.30;100.00
13661;BME280;6903;49.480;11.102;2023-01-25T06:23:21;99409.91;;;1.44;100.00
13661;BME280;6903;49.480;11.102;2023-01-25T06:25:47;99409.81;;;1.48;100.00
13661;BME280;6903;49.480;11.102;2023-01-25T06:28:12;99402.78;;;1.54;100.00
13661;BME280;6903;49.480;11.102;2023-01-25T06:30:37;99404.56;;;1.52;100.00
13661;BME280;6903;49.480;11.102;2023-01-25T06:33:03;99406.13;;;1.60;100.00
13661;BME280;6903;49.480;11.102;2023-01-25T06:35:30;99410.34;;;1.66;100.00
13661;BME280;6903;49.480;11.102;2023-01-25T06:37:55;99405.06;;;1.69;100.00
13661;BME280;6903;49.480;11.102;2023-01-25T06:40:21;99411.09;;;1.71;100.00
13661;BME280;6903;49.480;11.102;2023-01-25T06:42:46;99408.53;;;1.68;100.00
13661;BME280;6903;49.480;11.102;2023-01-25T06:45:11;99408.84;;;1.54;100.00
13661;BME280;6903;49.480;11.102;2023-01-25T06:47:37;99411.63;;;1.47;100.00
13661;BME280;6903;49.480;11.102;2023-01-25T06:50:03;99421.25;;;1.41;100.00
13661;BME280;6903;49.480;11.102;2023-01-25T06:52:28;99410.91;;;1.38;100.00
13661;BME280;6903;49.480;11.102;2023-01-25T06:54:56;99398.75;;;1.39;100.00
13661;BME280;6903;49.480;11.102;2023-01-25T06:57:21;99402.25;;;1.38;100.00
13661;BME280;6903;49.480;11.102;2023-01-25T06:59:46;99399.63;;;1.39;100.00
13661;BME280;6903;49.480;11.102;2023-01-25T07:02:14;99395.25;;;1.41;100.00
13661;BME280;6903;49.480;11.102;2023-01-25T07:04:39;99398.66;;;1.43;100.00
13661;BME280;6903;49.480;11.102;2023-01-25T07:07:07;99391.78;;;1.41;100.00
13661;BME280;6903;49.480;11.102;2023-01-25T07:09:33;99393.59;;;1.37;100.00
13661;BME280;6903;49.480;11.102;2023-01-25T07:11:59;99398.75;;;1.39;100.00
13661;BME280;6903;49.480;11.102;2023-01-25T07:14:26;99391.88;;;1.36;100.00
13661;BME280;6903;49.480;11.102;2023-01-25T07:16:51;99396.19;;;1.37;100.00
13661;BME280;6903;49.480;11.102;2023-01-25T07:19:17;99394.41;;;1.39;100.00
13661;BME280;6903;49.480;11.102;2023-01-25T07:21:42;99391.91;;;1.35;100.00
13661;BME280;6903;49.480;11.102;2023-01-25T07:24:12;99392.75;;;1.35;100.00
13661;BME280;6903;49.480;11.102;2023-01-25T07:26:38;99403.28;;;1.29;100.00
13661;BME280;6903;49.480;11.102;2023-01-25T07:29:03;99401.66;;;1.22;100.00
13661;BME280;6903;49.480;11.102;2023-01-25T07:31:28;99394.72;;;1.24;100.00
13661;BME280;6903;49.480;11.102;2023-01-25T07:33:55;99405.13;;;1.23;100.00
13661;BME280;6903;49.480;11.102;2023-01-25T07:36:21;99401.78;;;1.16;100.00
13661;BME280;6903;49.480;11.102;2023-01-25T07:38:47;99403.53;;;1.17;100.00
13661;BME280;6903;49.480;11.102;2023-01-25T07:41:13;99406.06;;;1.20;100.00
13661;BME280;6903;49.480;11.102;2023-01-25T07:43:40;99403.53;;;1.17;100.00
13661;BME280;6903;49.480;11.102;2023-01-25T07:46:08;99388.75;;;1.19;100.00
13661;BME280;6903;49.480;11.102;2023-01-25T07:48:37;99388.69;;;1.22;100.00
13661;BME280;6903;49.480;11.102;2023-01-25T07:51:04;99398.19;;;1.25;100.00
13661;BME280;6903;49.480;11.102;2023-01-25T07:53:38;99391.28;;;1.24;100.00
13661;BME280;6903;49.480;11.102;2023-01-25T07:56:04;99390.38;;;1.25;100.00
13661;BME280;6903;49.480;11.102;2023-01-25T07:58:29;99390.56;;;1.16;100.00
13661;BME280;6903;49.480;11.102;2023-01-25T08:00:54;99402.72;;;1.14;100.00
13661;BME280;6903;49.480;11.102;2023-01-25T08:03:19;99400.09;;;1.15;100.00
13661;BME280;6903;49.480;11.102;2023-01-25T08:05:46;99405.38;;;1.11;100.00
13661;BME280;6903;49.480;11.102;2023-01-25T08:08:11;99416.34;;;1.26;100.00
13661;BME280;6903;49.480;11.102;2023-01-25T08:10:37;99409.38;;;1.28;100.00
13661;BME280;6903;49.480;11.102;2023-01-25T08:13:02;99405.03;;;1.27;100.00
13661;BME280;6903;49.480;11.102;2023-01-25T08:15:28;99403.16;;;1.35;100.00
13661;BME280;6903;49.480;11.102;2023-01-25T08:17:53;99402.16;;;1.42;100.00
13661;BME280;6903;49.480;11.102;2023-01-25T08:20:18;99401.22;;;1.45;100.00
13661;BME280;6903;49.480;11.102;2023-01-25T08:22:43;99397.75;;;1.46;100.00
13661;BME280;6903;49.480;11.102;2023-01-25T08:25:09;99411.59;;;1.48;100.00
13661;BME280;6903;49.480;11.102;2023-01-25T08:27:35;99399.41;;;1.48;100.00
13661;BME280;6903;49.480;11.102;2023-01-25T08:30:00;99404.56;;;1.52;100.00
13661;BME280;6903;49.480;11.102;2023-01-25T08:32:25;99402.75;;;1.55;100.00
13661;BME280;6903;49.480;11.102;2023-01-25T08:34:51;99406.94;;;1.62;100.00
13661;BME280;6903;49.480;11.102;2023-01-25T08:37:16;99401.72;;;1.64;100.00
13661;BME280;6903;49.480;11.102;2023-01-25T08:39:41;99398.19;;;1.66;100.00
13661;BME280;6903;49.480;11.102;2023-01-25T08:42:07;99393.81;;;1.68;100.00
13661;BME280;6903;49.480;11.102;2023-01-25T08:44:32;99394.56;;;1.73;100.00
13661;BME280;6903;49.480;11.102;2023-01-25T08:46:57;99394.56;;;1.73;100.00
13661;BME280;6903;49.480;11.102;2023-01-25T08:49:23;99388.44;;;1.76;100.00
13661;BME280;6903;49.480;11.102;2023-01-25T08:51:48;99388.63;;;1.68;100.00
13661;BME280;6903;49.480;11.102;2023-01-25T08:54:14;99389.34;;;1.75;100.00
13661;BME280;6903;49.480;11.102;2023-01-25T08:56:40;99386.63;;;1.79;100.00
13661;BME280;6903;49.480;11.102;2023-01-25T08:59:07;99384.91;;;1.80;100.00
13661;BME280;6903;49.480;11.102;2023-01-25T09:01:34;99371.13;;;1.75;100.00
13661;BME280;6903;49.480;11.102;2023-01-25T09:04:00;99377.16;;;1.77;100.00
13661;BME280;6903;49.480;11.102;2023-01-25T09:06:25;99375.41;;;1.79;100.00
13661;BME280;6903;49.480;11.102;2023-01-25T09:08:50;99374.81;;;1.65;100.00
13661;BME280;6903;49.480;11.102;2023-01-25T09:11:18;99366.94;;;1.69;100.00
13661;BME280;6903;49.480;11.102;2023-01-25T09:13:45;99358.22;;;1.72;100.00
13661;BME280;6903;49.480;11.102;2023-01-25T09:16:13;99353.09;;;1.69;100.00
13661;BME280;6903;49.480;11.102;2023-01-25T09:18:41;99360.81;;;1.72;100.00
13661;BME280;6903;49.480;11.102;2023-01-25T09:21:15;99352.09;;;1.73;100.00
13661;BME280;6903;49.480;11.102;2023-01-25T09:23:41;99359.16;;;1.69;100.00
13661;BME280;6903;49.480;11.102;2023-01-25T09:26:09;99356.41;;;1.75;100.00
13661;BME280;6903;49.480;11.102;2023-01-25T09:28:35;99362.38;;;1.80;100.00
13661;BME280;6903;49.480;11.102;2023-01-25T09:31:02;99364.94;;;1.82;100.00
13661;BME280;6903;49.480;11.102;2023-01-25T09:33:31;99366.84;;;1.74;100.00
13661;BME280;6903;49.480;11.102;2023-01-25T09:35:57;99367.03;;;1.65;100.00
13661;BME280;6903;49.480;11.102;2023-01-25T09:38:23;99357.41;;;1.68;100.00
13661;BME280;6903;49.480;11.102;2023-01-25T09:41:01;99359.16;;;1.68;100.00
13661;BME280;6903;49.480;11.102;2023-01-25T09:43:53;99354.09;;;1.62;100.00
13661;BME280;6903;49.480;11.102;2023-01-25T09:46:35;99355.81;;;1.63;100.00
13661;BME280;6903;49.480;11.102;2023-01-25T09:52:05;99340.16;;;1.66;100.00
13661;BME280;6903;49.480;11.102;2023-01-25T09:54:38;99346.31;;;1.60;100.00
13661;BME280;6903;49.480;11.102;2023-01-25T09:57:12;99341.03;;;1.65;100.00
13661;BME280;6903;49.480;11.102;2023-01-25T09:59:39;99342.91;;;1.58;100.00
13661;BME280;6903;49.480;11.102;2023-01-25T10:02:22;99336.09;;;1.53;100.00
13661;BME280;6903;49.480;11.102;2023-01-25T10:04:53;99336.13;;;1.51;100.00
13661;BME280;6903;49.480;11.102;2023-01-25T10:07:33;99324.66;;;1.61;100.00
13661;BME280;6903;49.480;11.102;2023-01-25T10:10:07;99325.34;;;1.68;100.00
13661;BME280;6903;49.480;11.102;2023-01-25T10:12:36;99331.22;;;1.77;100.00
13661;BME280;6903;49.480;11.102;2023-01-25T10:15:17;99327.75;;;1.77;100.00
13661;BME280;6903;49.480;11.102;2023-01-25T10:17:43;99328.56;;;1.80;100.00
13661;BME280;6903;49.480;11.102;2023-01-25T10:20:31;99333.72;;;1.82;100.00
13661;BME280;6903;49.480;11.102;2023-01-25T10:25:35;99327.84;;;1.74;100.00
13661;BME280;6903;49.480;11.102;2023-01-25T10:28:29;99321.81;;;1.72;100.00
13661;BME280;6903;49.480;11.102;2023-01-25T10:31:04;99331.28;;;1.74;100.00
13661;BME280;6903;49.480;11.102;2023-01-25T10:33:34;99332.09;;;1.76;100.00
13661;BME280;6903;49.480;11.102;2023-01-25T10:36:03;99326.25;;;1.67;100.00
13661;BME280;6903;49.480;11.102;2023-01-25T10:38:32;99331.31;;;1.73;100.00
13661;BME280;6903;49.480;11.102;2023-01-25T10:41:03;99328.06;;;1.63;100.00
13661;BME280;6903;49.480;11.102;2023-01-25T10:43:31;99322.75;;;1.69;100.00
13661;BME280;6903;49.480;11.102;2023-01-25T10:45:56;99312.28;;;1.72;100.00
13661;BME280;6903;49.480;11.102;2023-01-25T10:48:26;99299.16;;;1.77;100.00
13661;BME280;6903;49.480;11.102;2023-01-25T10:50:54;99305.00;;;1.86;100.00
13661;BME280;6903;49.480;11.102;2023-01-25T10:53:24;99302.88;;;2.02;100.00
13661;BME280;6903;49.480;11.102;2023-01-25T10:56:20;99297.84;;;1.96;100.00
13661;BME280;6903;49.480;11.102;2023-01-25T10:58:50;99277.53;;;2.10;100.00
13661;BME280;6903;49.480;11.102;2023-01-25T11:01:28;99277.34;;;2.19;100.00
13661;BME280;6903;49.480;11.102;2023-01-25T11:03:54;99266.75;;;2.25;100.00
13661;BME280;6903;49.480;11.102;2023-01-25T11:06:32;99265.63;;;2.35;100.00
13661;BME280;6903;49.480;11.102;2023-01-25T11:08:58;99261.13;;;2.41;100.00
13661;BME280;6903;49.480;11.102;2023-01-25T11:13:51;99259.53;;;2.68;100.00
13661;BME280;6903;49.480;11.102;2023-01-25T11:16:48;99253.91;;;2.83;100.00
13661;BME280;6903;49.480;11.102;2023-01-25T11:19:36;99253.03;;;2.82;100.00
13661;BME280;6903;49.480;11.102;2023-01-25T11:22:20;99251.03;;;2.92;100.00
13661;BME280;6903;49.480;11.102;2023-01-25T11:24:48;99242.88;;;3.04;100.00
13661;BME280;6903;49.480;11.102;2023-01-25T11:27:24;99249.59;;;3.11;100.00
13661;BME280;6903;49.480;11.102;2023-01-25T11:30:09;99245.25;;;3.12;100.00
13661;BME280;6903;49.480;11.102;2023-01-25T11:32:39;99242.59;;;3.13;100.00
13661;BME280;6903;49.480;11.102;2023-01-25T11:35:11;99234.00;;;3.10;100.00
13661;BME280;6903;49.480;11.102;2023-01-25T11:38:16;99236.13;;;2.97;100.00
13661;BME280;6903;49.480;11.102;2023-01-25T11:40:55;99224.94;;;2.63;100.00
13661;BME280;6903;49.480;11.102;2023-01-25T11:43:53;99213.00;;;2.56;100.00
13661;BME280;6903;49.480;11.102;2023-01-25T11:49:21;99205.25;;;2.54;100.00
13661;BME280;6903;49.480;11.102;2023-01-25T11:52:03;99198.13;;;2.59;100.00
13661;BME280;6903;49.480;11.102;2023-01-25T11:57:27;99184.41;;;2.54;100.00
13661;BME280;6903;49.480;11.102;2023-01-25T12:00:02;99178.13;;;2.61;100.00
13661;BME280;6903;49.480;11.102;2023-01-25T12:09:07;99170.31;;;2.31;100.00
13661;BME280;6903;49.480;11.102;2023-01-25T12:14:14;99165.19;;;2.28;100.00
13661;BME280;6903;49.480;11.102;2023-01-25T12:17:07;99153.97;;;2.26;100.00
13661;BME280;6903;49.480;11.102;2023-01-25T12:25:06;99128.34;;;2.43;100.00
13661;BME280;6903;49.480;11.102;2023-01-25T12:27:54;99114.25;;;2.50;100.00
13661;BME280;6903;49.480;11.102;2023-01-25T12:43:53;99077.53;;;2.59;100.00
13661;BME280;6903;49.480;11.102;2023-01-25T12:46:44;99065.59;;;2.52;100.00
13661;BME280;6903;49.480;11.102;2023-01-25T12:49:19;99070.19;;;2.44;100.00
13661;BME280;6903;49.480;11.102;2023-01-25T12:51:47;99056.59;;;2.34;100.00
13661;BME280;6903;49.480;11.102;2023-01-25T12:54:18;99054.22;;;2.27;100.00
13661;BME280;6903;49.480;11.102;2023-01-25T12:57:08;99047.22;;;2.27;100.00
13661;BME280;6903;49.480;11.102;2023-01-25T13:03:05;99051.03;;;1.87;100.00
13661;BME280;6903;49.480;11.102;2023-01-25T13:05:45;99039.63;;;1.91;100.00
13661;BME280;6903;49.480;11.102;2023-01-25T13:11:09;99042.00;;;2.00;100.00
13661;BME280;6903;49.480;11.102;2023-01-25T13:13:36;99038.94;;;1.84;100.00
13661;BME280;6903;49.480;11.102;2023-01-25T13:16:43;99039.94;;;1.80;100.00
13661;BME280;6903;49.480;11.102;2023-01-25T13:19:18;99034.50;;;1.88;100.00
13661;BME280;6903;49.480;11.102;2023-01-25T13:21:45;99033.53;;;1.92;100.00
13661;BME280;6903;49.480;11.102;2023-01-25T13:24:15;99033.41;;;1.96;100.00
13661;BME280;6903;49.480;11.102;2023-01-25T13:32:04;99022.88;;;2.01;100.00
13661;BME280;6903;49.480;11.102;2023-01-25T13:37:24;99017.84;;;2.25;100.00
13661;BME280;6903;49.480;11.102;2023-01-25T13:42:30;99008.44;;;2.49;100.00
13661;BME280;6903;49.480;11.102;2023-01-25T13:44:58;99002.16;;;2.56;100.00
13661;BME280;6903;49.480;11.102;2023-01-25T13:47:29;98999.28;;;2.63;100.00
13661;BME280;6903;49.480;11.102;2023-01-25T13:50:21;98991.06;;;2.75;100.00
13661;BME280;6903;49.480;11.102;2023-01-25T13:53:04;98980.72;;;2.74;100.00
13661;BME280;6903;49.480;11.102;2023-01-25T13:55:38;98982.63;;;2.69;100.00
13661;BME280;6903;49.480;11.102;2023-01-25T13:58:09;98978.38;;;2.66;100.00
13661;BME280;6903;49.480;11.102;2023-01-25T14:00:35;98973.50;;;2.56;100.00
13661;BME280;6903;49.480;11.102;2023-01-25T14:03:03;98975.97;;;2.33;100.00
13661;BME280;6903;49.480;11.102;2023-01-25T14:05:29;98973.53;;;2.27;100.00
13661;BME280;6903;49.480;11.102;2023-01-25T14:07:55;98967.69;;;2.20;100.00
13661;BME280;6903;49.480;11.102;2023-01-25T14:10:23;98972.00;;;2.20;100.00
13661;BME280;6903;49.480;11.102;2023-01-25T14:12:51;98964.31;;;2.17;100.00
13661;BME280;6903;49.480;11.102;2023-01-25T14:17:43;98967.84;;;2.14;100.00